createdAt,value
2022-09-12T00:04:23.370Z,5.05
2022-09-12T00:09:25.693Z,5.63
2022-09-12T00:14:28.192Z,4.47
2022-09-12T00:19:31.067Z,5.63
2022-09-12T00:24:34.303Z,4.93
2022-09-12T00:29:36.658Z,5.57
2022-09-12T00:34:38.985Z,4.90
2022-09-12T00:39:41.373Z,5.40
2022-09-12T00:44:47.727Z,5.20
2022-09-12T00:50:05.066Z,5.47
2022-09-12T00:55:35.995Z,5.47
2022-09-12T01:00:38.592Z,4.65
2022-09-12T01:05:45.394Z,5.55
2022-09-12T01:10:47.879Z,3.63
2022-09-12T01:15:50.305Z,5.60
2022-09-12T01:20:52.593Z,5.47
2022-09-12T01:26:03.917Z,5.82
2022-09-12T01:31:24.993Z,5.05
2022-09-12T01:36:46.173Z,5.05
2022-09-12T01:42:00.250Z,6.03
2022-09-12T01:47:25.212Z,5.38
2022-09-12T01:52:33.282Z,4.90
2022-09-12T01:57:41.417Z,4.40
2022-09-12T02:03:02.415Z,5.15
2022-09-12T02:08:12.622Z,5.03
2022-09-12T02:13:30.487Z,4.80
2022-09-12T02:18:33.837Z,5.03
2022-09-12T02:23:41.875Z,5.05
2022-09-12T02:28:44.698Z,5.25
2022-09-12T02:34:08.831Z,4.28
2022-09-12T02:39:11.209Z,4.85
2022-09-12T02:44:13.886Z,5.03
2022-09-12T02:49:17.600Z,5.03
2022-09-12T02:54:20.773Z,5.15
2022-09-12T02:59:24.239Z,4.88
2022-09-12T03:04:45.214Z,4.85
2022-09-12T03:10:08.686Z,5.30
2022-09-12T03:15:32.227Z,5.60
2022-09-12T03:20:51.935Z,5.97
2022-09-12T03:25:59.905Z,5.35
2022-09-12T03:31:16.094Z,5.72
2022-09-12T03:36:22.139Z,5.03
2022-09-12T03:41:24.517Z,4.90
2022-09-12T03:46:26.787Z,5.50
2022-09-12T03:51:29.495Z,5.35
2022-09-12T03:56:32.481Z,4.78
2022-09-12T04:01:35.393Z,4.85
2022-09-12T04:06:37.661Z,4.80
2022-09-12T04:11:40.039Z,4.60
2022-09-12T04:16:42.367Z,5.18
2022-09-12T04:21:44.727Z,5.10
2022-09-12T04:26:47.139Z,5.28
2022-09-12T04:31:49.625Z,5.22
2022-09-12T04:36:51.910Z,4.72
2022-09-12T04:41:54.471Z,5.25
2022-09-12T04:46:56.771Z,4.88
2022-09-12T04:51:59.177Z,5.63
2022-09-12T04:57:01.484Z,4.72
2022-09-12T05:02:03.896Z,5.10
2022-09-12T05:07:06.316Z,4.55
2022-09-12T05:12:11.137Z,5.13
2022-09-12T05:17:16.159Z,4.35
2022-09-12T05:22:21.220Z,4.47
2022-09-12T05:27:25.973Z,4.18
2022-09-12T05:32:33.184Z,3.55
2022-09-12T05:37:38.199Z,3.75
2022-09-12T05:42:43.212Z,3.42
2022-09-12T05:47:48.269Z,3.20
2022-09-12T05:52:52.790Z,3.58
2022-09-12T05:57:57.151Z,3.08
2022-09-12T06:03:02.250Z,3.25
2022-09-12T06:08:08.160Z,2.72
2022-09-12T06:13:13.223Z,2.60
2022-09-12T06:18:17.963Z,2.80
2022-09-12T06:23:22.490Z,2.90
2022-09-12T06:28:27.229Z,2.70
2022-09-12T06:33:33.974Z,2.72
2022-09-12T06:38:39.491Z,2.45
2022-09-12T06:43:43.871Z,2.72
2022-09-12T06:48:48.148Z,2.38
2022-09-12T06:53:53.878Z,2.38
2022-09-12T06:58:59.371Z,2.53
2022-09-12T07:04:05.044Z,2.47
2022-09-12T07:09:14.040Z,2.38
2022-09-12T07:14:18.542Z,2.50
2022-09-12T07:19:23.252Z,2.22
2022-09-12T07:24:28.280Z,1.70
2022-09-12T07:29:37.049Z,2.22
2022-09-12T07:34:42.998Z,2.00
2022-09-12T07:39:47.846Z,1.85
2022-09-12T07:44:53.908Z,1.63
2022-09-12T07:49:57.964Z,1.58
2022-09-12T07:55:02.274Z,2.00
2022-09-12T08:00:10.771Z,1.90
2022-09-12T08:05:17.323Z,1.75
2022-09-12T08:10:22.143Z,1.90
2022-09-12T08:15:26.969Z,1.60
2022-09-12T08:20:31.284Z,1.40
2022-09-12T08:25:36.032Z,1.77
2022-09-12T08:30:41.343Z,1.65
2022-09-12T08:35:46.091Z,1.52
2022-09-12T08:41:01.300Z,1.50
2022-09-12T08:46:44.059Z,1.35
2022-09-12T08:51:48.909Z,1.25
2022-09-12T08:56:53.306Z,1.35
2022-09-12T09:02:01.200Z,1.10
2022-09-12T09:07:27.353Z,1.25
2022-09-12T09:12:40.411Z,1.00
2022-09-12T09:17:51.327Z,1.60
2022-09-12T09:23:06.020Z,1.88
2022-09-12T09:28:21.397Z,1.38
2022-09-12T09:33:29.082Z,1.27
2022-09-12T09:43:41.084Z,1.30
2022-09-12T09:48:51.142Z,1.33
2022-09-12T09:54:02.647Z,1.17
2022-09-12T09:59:28.079Z,1.38
2022-09-12T10:04:39.185Z,0.88
2022-09-12T10:10:16.218Z,1.33
2022-09-12T10:15:27.000Z,1.20
2022-09-12T10:20:39.165Z,1.27
2022-09-12T10:25:44.119Z,1.10
2022-09-12T10:30:55.408Z,1.40
2022-09-12T10:36:00.424Z,1.52
2022-09-12T10:41:07.987Z,1.60
2022-09-12T10:46:18.225Z,1.20
2022-09-12T10:51:28.187Z,1.63
2022-09-12T10:57:01.137Z,0.77
2022-09-12T11:02:30.263Z,1.48
2022-09-12T11:07:49.742Z,1.58
2022-09-12T11:13:25.484Z,0.93
2022-09-12T11:18:44.238Z,1.15
2022-09-12T11:24:11.467Z,1.30
2022-09-12T11:29:35.286Z,1.20
2022-09-12T11:35:12.809Z,1.40
2022-09-12T11:40:28.374Z,1.38
2022-09-12T11:45:45.837Z,1.13
2022-09-12T11:50:49.608Z,1.20
2022-09-12T11:56:01.382Z,1.40
2022-09-12T12:01:12.939Z,1.00
2022-09-12T12:06:24.361Z,2.00
2022-09-12T12:11:34.664Z,0.73
2022-09-12T12:16:40.999Z,1.40
2022-09-12T12:21:45.723Z,0.85
2022-09-12T12:26:57.560Z,1.42
2022-09-12T12:32:04.728Z,1.35
2022-09-12T12:42:36.473Z,1.30
2022-09-12T12:47:43.561Z,1.17
2022-09-12T12:52:56.449Z,2.22
2022-09-12T12:58:04.601Z,3.78
2022-09-12T13:03:09.169Z,3.88
2022-09-12T13:08:33.786Z,0.90
2022-09-12T13:13:42.595Z,1.00
2022-09-12T13:18:51.873Z,2.80
2022-09-12T13:24:16.542Z,1.00
2022-09-12T13:29:22.915Z,0.95
2022-09-12T13:34:31.947Z,0.50
2022-09-12T13:39:51.808Z,2.42
2022-09-12T13:45:00.545Z,0.90
2022-09-12T13:50:06.729Z,2.97
2022-09-12T13:55:27.648Z,1.50
2022-09-12T14:00:33.829Z,1.05
2022-09-12T14:05:40.083Z,0.82
2022-09-12T14:10:47.889Z,1.20
2022-09-12T14:15:53.931Z,1.40
2022-09-12T14:21:01.816Z,1.13
2022-09-12T14:26:07.861Z,0.90
2022-09-12T14:31:21.954Z,1.50
2022-09-12T14:36:29.468Z,0.90
2022-09-12T14:41:37.245Z,0.90
2022-09-12T14:46:43.562Z,1.40
2022-09-12T14:51:53.986Z,1.20
2022-09-12T14:57:20.050Z,1.20
2022-09-12T15:02:27.589Z,1.40
2022-09-12T15:07:41.861Z,1.90
2022-09-12T15:12:45.932Z,1.40
2022-09-12T15:17:50.332Z,2.40
2022-09-12T15:22:55.067Z,1.40
2022-09-12T15:27:59.609Z,1.27
2022-09-12T15:33:03.413Z,1.23
2022-09-12T15:38:08.388Z,1.20
2022-09-12T15:43:16.096Z,1.25
2022-09-12T15:53:25.446Z,1.33
2022-09-12T15:58:30.467Z,1.23
2022-09-12T16:03:35.499Z,3.45
2022-09-12T16:08:40.251Z,2.15
2022-09-12T16:13:44.314Z,4.70
2022-09-12T16:18:48.726Z,6.30
2022-09-12T16:23:54.517Z,3.67
2022-09-12T16:29:00.846Z,2.88
2022-09-12T16:34:04.977Z,3.00
2022-09-12T16:39:09.407Z,2.40
2022-09-12T16:44:14.419Z,1.98
2022-09-12T16:49:19.312Z,1.90
2022-09-12T16:54:23.950Z,4.05
2022-09-12T16:59:28.678Z,4.90
2022-09-12T17:04:32.817Z,3.47
2022-09-12T17:09:37.368Z,3.35
2022-09-12T17:14:40.778Z,4.20
2022-09-12T17:19:45.765Z,5.35
2022-09-12T17:24:50.561Z,5.05
2022-09-12T17:29:55.598Z,4.35
2022-09-12T17:35:01.448Z,3.55
2022-09-12T17:40:06.500Z,2.70
2022-09-12T17:45:16.392Z,3.13
2022-09-12T17:50:39.520Z,3.67
2022-09-12T17:55:44.531Z,3.90
2022-09-12T18:01:07.643Z,4.07
2022-09-12T18:06:11.701Z,4.10
2022-09-12T18:11:15.956Z,3.53
2022-09-12T18:16:21.024Z,3.95
2022-09-12T18:21:25.769Z,3.80
2022-09-12T18:26:30.792Z,4.13
2022-09-12T18:31:35.836Z,4.40
2022-09-12T18:36:40.727Z,5.05
2022-09-12T18:41:45.061Z,4.28
2022-09-12T18:46:49.208Z,4.57
2022-09-12T18:51:53.834Z,4.50
2022-09-12T18:56:58.372Z,4.93
2022-09-12T19:02:02.266Z,6.07
2022-09-12T19:07:07.195Z,7.55
2022-09-12T19:12:11.964Z,7.93
2022-09-12T19:17:16.738Z,8.77
2022-09-12T19:22:20.858Z,8.20
2022-09-12T19:27:25.237Z,7.38
2022-09-12T19:32:30.027Z,7.63
2022-09-12T19:37:34.801Z,7.07
2022-09-12T19:42:38.309Z,6.72
2022-09-12T19:47:43.032Z,6.18
2022-09-12T19:52:47.904Z,6.97
2022-09-12T19:57:51.283Z,6.10
2022-09-12T20:02:56.044Z,5.97
2022-09-12T20:08:00.990Z,5.70
2022-09-12T20:13:05.859Z,6.30
2022-09-12T20:18:10.272Z,5.32
2022-09-12T20:23:16.223Z,5.40
2022-09-12T20:28:21.017Z,4.68
2022-09-12T20:33:26.017Z,5.07
2022-09-12T20:38:30.920Z,4.43
2022-09-12T20:43:34.921Z,5.00
2022-09-12T20:48:40.294Z,5.22
2022-09-12T20:53:44.404Z,4.55
2022-09-12T20:58:48.872Z,4.80
2022-09-12T21:03:52.690Z,5.00
2022-09-12T21:09:01.098Z,4.70
2022-09-12T21:14:06.043Z,4.65
2022-09-12T21:19:09.378Z,4.43
2022-09-12T21:24:16.586Z,4.93
2022-09-12T21:29:21.316Z,5.10
2022-09-12T21:34:26.315Z,8.15
2022-09-12T21:39:31.392Z,10.27
2022-09-12T21:44:36.115Z,7.00
2022-09-12T21:49:40.921Z,6.03
2022-09-12T21:54:44.414Z,6.35
2022-09-12T21:59:49.072Z,5.25
2022-09-12T22:04:53.619Z,5.43
2022-09-12T22:09:58.345Z,4.07
2022-09-12T22:15:22.925Z,6.60
2022-09-12T22:20:28.354Z,8.30
2022-09-12T22:25:33.143Z,6.25
2022-09-12T22:30:37.928Z,4.70
2022-09-12T22:35:43.094Z,5.40
2022-09-12T22:40:47.374Z,5.20
2022-09-12T22:45:53.362Z,5.07
2022-09-12T22:50:58.401Z,11.05
2022-09-12T22:56:04.370Z,8.05
2022-09-12T23:01:09.391Z,7.05
2022-09-12T23:06:14.113Z,7.20
2022-09-12T23:11:22.639Z,5.80
2022-09-12T23:16:29.189Z,6.15
2022-09-12T23:21:34.133Z,6.15
2022-09-12T23:26:38.716Z,5.75
2022-09-12T23:31:43.539Z,6.28
2022-09-12T23:36:48.188Z,5.47
2022-09-12T23:41:53.567Z,5.43
2022-09-12T23:46:57.695Z,4.82
2022-09-12T23:52:01.499Z,3.83
2022-09-12T23:57:06.057Z,3.70
